sensor_id;sensor_type;location;lat;lon;timestamp;P1;durP1;ratioP1;P2;durP2;ratioP2
64037;SDS011;54641;50.168;8.492;2023-05-29T00:01:56;6.70;;;3.30;;
64037;SDS011;54641;50.168;8.492;2023-05-29T00:04:27;6.90;;;4.00;;
64037;SDS011;54641;50.168;8.492;2023-05-29T00:06:57;6.20;;;3.50;;
64037;SDS011;54641;50.168;8.492;2023-05-29T00:09:27;7.90;;;3.50;;
64037;SDS011;54641;50.168;8.492;2023-05-29T00:11:58;5.90;;;3.30;;
64037;SDS011;54641;50.168;8.492;2023-05-29T00:14:28;9.60;;;3.90;;
64037;SDS011;54641;50.168;8.492;2023-05-29T00:16:59;8.20;;;3.60;;
64037;SDS011;54641;50.168;8.492;2023-05-29T00:19:30;7.90;;;3.60;;
64037;SDS011;54641;50.168;8.492;2023-05-29T00:22:00;6.30;;;3.70;;
64037;SDS011;54641;50.168;8.492;2023-05-29T00:24:31;6.40;;;3.80;;
64037;SDS011;54641;50.168;8.492;2023-05-29T00:27:01;9.70;;;3.80;;
64037;SDS011;54641;50.168;8.492;2023-05-29T00:29:32;10.30;;;4.10;;
64037;SDS011;54641;50.168;8.492;2023-05-29T00:32:04;6.20;;;3.80;;
64037;SDS011;54641;50.168;8.492;2023-05-29T00:34:34;9.10;;;3.80;;
64037;SDS011;54641;50.168;8.492;2023-05-29T00:37:04;8.80;;;3.50;;
64037;SDS011;54641;50.168;8.492;2023-05-29T00:39:36;7.40;;;3.80;;
64037;SDS011;54641;50.168;8.492;2023-05-29T00:42:06;7.60;;;3.10;;
64037;SDS011;54641;50.168;8.492;2023-05-29T00:44:37;7.20;;;3.80;;
64037;SDS011;54641;50.168;8.492;2023-05-29T00:47:08;7.40;;;3.80;;
64037;SDS011;54641;50.168;8.492;2023-05-29T00:49:38;7.10;;;3.60;;
64037;SDS011;54641;50.168;8.492;2023-05-29T00:52:08;7.40;;;3.30;;
64037;SDS011;54641;50.168;8.492;2023-05-29T00:54:43;8.30;;;3.90;;
64037;SDS011;54641;50.168;8.492;2023-05-29T00:57:14;7.50;;;4.40;;
64037;SDS011;54641;50.168;8.492;2023-05-29T00:59:46;7.70;;;3.40;;
64037;SDS011;54641;50.168;8.492;2023-05-29T01:02:17;8.10;;;3.50;;
64037;SDS011;54641;50.168;8.492;2023-05-29T01:04:48;8.50;;;3.80;;
64037;SDS011;54641;50.168;8.492;2023-05-29T01:07:22;7.90;;;3.60;;
64037;SDS011;54641;50.168;8.492;2023-05-29T01:09:53;6.30;;;3.80;;
64037;SDS011;54641;50.168;8.492;2023-05-29T01:12:26;7.00;;;3.50;;
64037;SDS011;54641;50.168;8.492;2023-05-29T01:15:04;8.60;;;3.70;;
64037;SDS011;54641;50.168;8.492;2023-05-29T01:17:45;9.10;;;3.70;;
64037;SDS011;54641;50.168;8.492;2023-05-29T01:20:23;10.50;;;3.40;;
64037;SDS011;54641;50.168;8.492;2023-05-29T01:25:53;6.40;;;3.80;;
64037;SDS011;54641;50.168;8.492;2023-05-29T01:28:32;8.10;;;3.40;;
64037;SDS011;54641;50.168;8.492;2023-05-29T01:31:05;7.00;;;3.00;;
64037;SDS011;54641;50.168;8.492;2023-05-29T01:33:39;7.20;;;3.50;;
64037;SDS011;54641;50.168;8.492;2023-05-29T01:36:09;7.00;;;3.40;;
64037;SDS011;54641;50.168;8.492;2023-05-29T01:38:40;6.60;;;3.00;;
64037;SDS011;54641;50.168;8.492;2023-05-29T01:41:11;7.20;;;4.10;;
64037;SDS011;54641;50.168;8.492;2023-05-29T01:43:42;6.50;;;3.30;;
64037;SDS011;54641;50.168;8.492;2023-05-29T01:46:15;9.30;;;3.50;;
64037;SDS011;54641;50.168;8.492;2023-05-29T01:48:46;7.40;;;3.50;;
64037;SDS011;54641;50.168;8.492;2023-05-29T01:51:17;7.70;;;4.00;;
64037;SDS011;54641;50.168;8.492;2023-05-29T01:53:48;10.60;;;3.60;;
64037;SDS011;54641;50.168;8.492;2023-05-29T01:56:18;7.80;;;4.10;;
64037;SDS011;54641;50.168;8.492;2023-05-29T01:58:50;6.50;;;3.30;;
64037;SDS011;54641;50.168;8.492;2023-05-29T02:01:21;7.00;;;3.30;;
64037;SDS011;54641;50.168;8.492;2023-05-29T02:03:51;6.90;;;3.60;;
64037;SDS011;54641;50.168;8.492;2023-05-29T02:06:22;7.40;;;3.20;;
64037;SDS011;54641;50.168;8.492;2023-05-29T02:08:53;7.20;;;3.50;;
64037;SDS011;54641;50.168;8.492;2023-05-29T02:11:23;6.50;;;3.20;;
64037;SDS011;54641;50.168;8.492;2023-05-29T02:13:54;8.20;;;3.30;;
64037;SDS011;54641;50.168;8.492;2023-05-29T02:16:25;6.30;;;3.10;;
64037;SDS011;54641;50.168;8.492;2023-05-29T02:18:56;6.30;;;3.40;;
64037;SDS011;54641;50.168;8.492;2023-05-29T02:21:26;6.20;;;3.00;;
64037;SDS011;54641;50.168;8.492;2023-05-29T02:24:00;6.60;;;2.80;;
64037;SDS011;54641;50.168;8.492;2023-05-29T02:26:35;5.90;;;3.10;;
64037;SDS011;54641;50.168;8.492;2023-05-29T02:32:15;4.80;;;3.00;;
64037;SDS011;54641;50.168;8.492;2023-05-29T02:34:46;7.10;;;3.50;;
64037;SDS011;54641;50.168;8.492;2023-05-29T02:37:17;6.30;;;3.20;;
64037;SDS011;54641;50.168;8.492;2023-05-29T02:39:47;6.90;;;3.10;;
64037;SDS011;54641;50.168;8.492;2023-05-29T02:42:17;6.30;;;3.60;;
64037;SDS011;54641;50.168;8.492;2023-05-29T02:44:47;5.70;;;2.80;;
64037;SDS011;54641;50.168;8.492;2023-05-29T02:47:18;7.10;;;3.00;;
64037;SDS011;54641;50.168;8.492;2023-05-29T02:49:48;6.10;;;3.20;;
64037;SDS011;54641;50.168;8.492;2023-05-29T02:52:18;6.30;;;2.90;;
64037;SDS011;54641;50.168;8.492;2023-05-29T02:54:50;7.60;;;3.20;;
64037;SDS011;54641;50.168;8.492;2023-05-29T02:57:21;7.60;;;3.50;;
64037;SDS011;54641;50.168;8.492;2023-05-29T02:59:52;7.00;;;3.20;;
64037;SDS011;54641;50.168;8.492;2023-05-29T03:02:22;7.60;;;3.20;;
64037;SDS011;54641;50.168;8.492;2023-05-29T03:04:53;6.70;;;3.70;;
64037;SDS011;54641;50.168;8.492;2023-05-29T03:07:23;9.90;;;4.40;;
64037;SDS011;54641;50.168;8.492;2023-05-29T03:09:55;7.10;;;3.30;;
64037;SDS011;54641;50.168;8.492;2023-05-29T03:12:27;9.20;;;3.10;;
64037;SDS011;54641;50.168;8.492;2023-05-29T03:14:57;6.40;;;3.70;;
64037;SDS011;54641;50.168;8.492;2023-05-29T03:17:28;7.10;;;3.50;;
64037;SDS011;54641;50.168;8.492;2023-05-29T03:19:59;9.30;;;4.30;;
64037;SDS011;54641;50.168;8.492;2023-05-29T03:22:33;7.40;;;3.60;;
64037;SDS011;54641;50.168;8.492;2023-05-29T03:25:06;6.40;;;3.00;;
64037;SDS011;54641;50.168;8.492;2023-05-29T03:27:37;6.60;;;3.40;;
64037;SDS011;54641;50.168;8.492;2023-05-29T03:30:13;7.60;;;3.50;;
64037;SDS011;54641;50.168;8.492;2023-05-29T03:32:44;8.40;;;3.70;;
64037;SDS011;54641;50.168;8.492;2023-05-29T03:35:14;6.40;;;3.80;;
64037;SDS011;54641;50.168;8.492;2023-05-29T03:37:45;7.40;;;3.50;;
64037;SDS011;54641;50.168;8.492;2023-05-29T03:40:15;8.00;;;3.50;;
64037;SDS011;54641;50.168;8.492;2023-05-29T03:42:47;7.20;;;3.40;;
64037;SDS011;54641;50.168;8.492;2023-05-29T03:45:19;6.40;;;3.50;;
64037;SDS011;54641;50.168;8.492;2023-05-29T03:47:49;6.30;;;4.00;;
64037;SDS011;54641;50.168;8.492;2023-05-29T03:50:20;5.70;;;3.00;;
64037;SDS011;54641;50.168;8.492;2023-05-29T03:52:50;7.50;;;3.90;;
64037;SDS011;54641;50.168;8.492;2023-05-29T03:55:20;7.90;;;4.10;;
64037;SDS011;54641;50.168;8.492;2023-05-29T03:57:51;8.10;;;3.90;;
64037;SDS011;54641;50.168;8.492;2023-05-29T04:00:21;7.70;;;3.00;;
64037;SDS011;54641;50.168;8.492;2023-05-29T04:02:52;8.10;;;3.80;;
64037;SDS011;54641;50.168;8.492;2023-05-29T04:07:53;6.00;;;3.40;;
64037;SDS011;54641;50.168;8.492;2023-05-29T04:10:42;6.00;;;3.70;;
64037;SDS011;54641;50.168;8.492;2023-05-29T04:13:12;6.20;;;3.70;;
64037;SDS011;54641;50.168;8.492;2023-05-29T04:15:42;6.90;;;3.90;;
64037;SDS011;54641;50.168;8.492;2023-05-29T04:18:14;6.90;;;3.40;;
64037;SDS011;54641;50.168;8.492;2023-05-29T04:20:45;8.10;;;4.10;;
64037;SDS011;54641;50.168;8.492;2023-05-29T04:23:16;7.70;;;3.90;;
64037;SDS011;54641;50.168;8.492;2023-05-29T04:25:47;6.70;;;3.80;;
64037;SDS011;54641;50.168;8.492;2023-05-29T04:28:22;8.20;;;3.80;;
64037;SDS011;54641;50.168;8.492;2023-05-29T04:30:52;8.00;;;4.00;;
64037;SDS011;54641;50.168;8.492;2023-05-29T04:33:24;7.70;;;3.60;;
64037;SDS011;54641;50.168;8.492;2023-05-29T04:35:56;6.70;;;3.90;;
64037;SDS011;54641;50.168;8.492;2023-05-29T04:38:28;8.10;;;4.20;;
64037;SDS011;54641;50.168;8.492;2023-05-29T04:41:00;7.40;;;3.60;;
64037;SDS011;54641;50.168;8.492;2023-05-29T04:43:31;7.50;;;4.20;;
64037;SDS011;54641;50.168;8.492;2023-05-29T04:46:06;9.30;;;4.60;;
64037;SDS011;54641;50.168;8.492;2023-05-29T04:48:40;9.00;;;4.90;;
64037;SDS011;54641;50.168;8.492;2023-05-29T04:51:11;8.20;;;4.40;;
64037;SDS011;54641;50.168;8.492;2023-05-29T04:53:42;8.80;;;4.20;;
64037;SDS011;54641;50.168;8.492;2023-05-29T04:56:14;5.80;;;4.10;;
64037;SDS011;54641;50.168;8.492;2023-05-29T04:58:46;8.20;;;4.80;;
64037;SDS011;54641;50.168;8.492;2023-05-29T05:01:16;8.20;;;4.10;;
64037;SDS011;54641;50.168;8.492;2023-05-29T05:03:47;7.90;;;4.20;;
64037;SDS011;54641;50.168;8.492;2023-05-29T05:06:17;7.50;;;4.40;;
64037;SDS011;54641;50.168;8.492;2023-05-29T05:08:48;9.00;;;4.20;;
64037;SDS011;54641;50.168;8.492;2023-05-29T05:11:18;8.50;;;4.70;;
64037;SDS011;54641;50.168;8.492;2023-05-29T05:13:50;7.60;;;4.20;;
64037;SDS011;54641;50.168;8.492;2023-05-29T05:16:20;8.40;;;3.90;;
64037;SDS011;54641;50.168;8.492;2023-05-29T05:18:50;7.10;;;4.00;;
64037;SDS011;54641;50.168;8.492;2023-05-29T05:21:21;7.40;;;4.30;;
64037;SDS011;54641;50.168;8.492;2023-05-29T05:23:52;9.70;;;5.00;;
64037;SDS011;54641;50.168;8.492;2023-05-29T05:26:26;10.00;;;4.20;;
64037;SDS011;54641;50.168;8.492;2023-05-29T05:28:56;8.80;;;4.60;;
64037;SDS011;54641;50.168;8.492;2023-05-29T05:31:28;8.00;;;4.20;;
64037;SDS011;54641;50.168;8.492;2023-05-29T05:33:59;12.40;;;4.90;;
64037;SDS011;54641;50.168;8.492;2023-05-29T05:36:29;8.00;;;4.30;;
64037;SDS011;54641;50.168;8.492;2023-05-29T05:39:05;9.60;;;4.10;;
64037;SDS011;54641;50.168;8.492;2023-05-29T05:41:36;7.10;;;3.90;;
64037;SDS011;54641;50.168;8.492;2023-05-29T05:44:06;6.00;;;3.80;;
64037;SDS011;54641;50.168;8.492;2023-05-29T05:46:50;10.50;;;4.10;;
64037;SDS011;54641;50.168;8.492;2023-05-29T05:49:22;9.50;;;4.50;;
64037;SDS011;54641;50.168;8.492;2023-05-29T05:51:53;7.10;;;4.30;;
64037;SDS011;54641;50.168;8.492;2023-05-29T05:54:23;8.50;;;4.70;;
64037;SDS011;54641;50.168;8.492;2023-05-29T05:56:53;7.40;;;4.30;;
64037;SDS011;54641;50.168;8.492;2023-05-29T05:59:24;9.00;;;4.50;;
64037;SDS011;54641;50.168;8.492;2023-05-29T06:01:54;7.90;;;4.20;;
64037;SDS011;54641;50.168;8.492;2023-05-29T06:04:24;7.60;;;4.60;;
64037;SDS011;54641;50.168;8.492;2023-05-29T06:06:55;6.80;;;3.90;;
64037;SDS011;54641;50.168;8.492;2023-05-29T06:09:26;7.00;;;4.90;;
64037;SDS011;54641;50.168;8.492;2023-05-29T06:11:56;7.10;;;4.10;;
64037;SDS011;54641;50.168;8.492;2023-05-29T06:14:28;8.30;;;4.20;;
64037;SDS011;54641;50.168;8.492;2023-05-29T06:16:59;8.60;;;4.40;;
64037;SDS011;54641;50.168;8.492;2023-05-29T06:19:31;7.70;;;4.00;;
64037;SDS011;54641;50.168;8.492;2023-05-29T06:22:01;8.10;;;4.00;;
64037;SDS011;54641;50.168;8.492;2023-05-29T06:24:32;7.50;;;4.30;;
64037;SDS011;54641;50.168;8.492;2023-05-29T06:27:03;8.90;;;4.90;;
64037;SDS011;54641;50.168;8.492;2023-05-29T06:29:34;7.10;;;3.80;;
64037;SDS011;54641;50.168;8.492;2023-05-29T06:32:06;6.80;;;4.40;;
64037;SDS011;54641;50.168;8.492;2023-05-29T06:34:36;7.70;;;4.50;;
64037;SDS011;54641;50.168;8.492;2023-05-29T06:37:06;9.80;;;4.30;;
64037;SDS011;54641;50.168;8.492;2023-05-29T06:39:37;9.00;;;4.30;;
64037;SDS011;54641;50.168;8.492;2023-05-29T06:42:09;10.10;;;4.10;;
64037;SDS011;54641;50.168;8.492;2023-05-29T06:44:42;7.30;;;4.10;;
64037;SDS011;54641;50.168;8.492;2023-05-29T06:47:12;10.40;;;4.60;;
64037;SDS011;54641;50.168;8.492;2023-05-29T06:49:43;8.00;;;4.00;;
64037;SDS011;54641;50.168;8.492;2023-05-29T06:52:13;7.40;;;4.00;;
64037;SDS011;54641;50.168;8.492;2023-05-29T06:55:07;7.00;;;4.30;;
64037;SDS011;54641;50.168;8.492;2023-05-29T06:57:38;6.80;;;3.90;;
64037;SDS011;54641;50.168;8.492;2023-05-29T07:00:09;6.90;;;4.00;;
64037;SDS011;54641;50.168;8.492;2023-05-29T07:02:46;6.20;;;4.10;;
64037;SDS011;54641;50.168;8.492;2023-05-29T07:05:17;6.90;;;4.20;;
64037;SDS011;54641;50.168;8.492;2023-05-29T07:07:47;7.80;;;4.40;;
64037;SDS011;54641;50.168;8.492;2023-05-29T07:10:17;7.00;;;4.00;;
64037;SDS011;54641;50.168;8.492;2023-05-29T07:12:48;6.60;;;4.00;;
64037;SDS011;54641;50.168;8.492;2023-05-29T07:15:18;9.20;;;3.50;;
64037;SDS011;54641;50.168;8.492;2023-05-29T07:17:48;6.90;;;4.10;;
64037;SDS011;54641;50.168;8.492;2023-05-29T07:20:21;9.80;;;4.40;;
64037;SDS011;54641;50.168;8.492;2023-05-29T07:22:52;5.70;;;3.90;;
64037;SDS011;54641;50.168;8.492;2023-05-29T07:25:23;9.30;;;4.40;;
64037;SDS011;54641;50.168;8.492;2023-05-29T07:27:53;5.90;;;3.50;;
64037;SDS011;54641;50.168;8.492;2023-05-29T07:30:32;7.40;;;4.50;;
64037;SDS011;54641;50.168;8.492;2023-05-29T07:33:02;9.00;;;4.40;;
64037;SDS011;54641;50.168;8.492;2023-05-29T07:35:33;9.60;;;4.40;;
64037;SDS011;54641;50.168;8.492;2023-05-29T07:38:04;6.60;;;4.00;;
64037;SDS011;54641;50.168;8.492;2023-05-29T07:40:34;6.50;;;3.90;;
64037;SDS011;54641;50.168;8.492;2023-05-29T07:43:27;6.00;;;3.90;;
64037;SDS011;54641;50.168;8.492;2023-05-29T07:46:00;7.30;;;4.30;;
64037;SDS011;54641;50.168;8.492;2023-05-29T07:48:31;5.80;;;4.10;;
64037;SDS011;54641;50.168;8.492;2023-05-29T07:51:02;6.70;;;3.80;;
64037;SDS011;54641;50.168;8.492;2023-05-29T07:53:38;8.00;;;4.10;;
64037;SDS011;54641;50.168;8.492;2023-05-29T07:56:09;6.50;;;4.60;;
64037;SDS011;54641;50.168;8.492;2023-05-29T07:58:39;10.00;;;4.60;;
64037;SDS011;54641;50.168;8.492;2023-05-29T08:01:10;6.40;;;3.80;;
64037;SDS011;54641;50.168;8.492;2023-05-29T08:03:42;7.60;;;4.30;;
64037;SDS011;54641;50.168;8.492;2023-05-29T08:06:29;8.20;;;3.70;;
64037;SDS011;54641;50.168;8.492;2023-05-29T08:09:01;8.60;;;4.80;;
64037;SDS011;54641;50.168;8.492;2023-05-29T08:11:33;7.30;;;4.60;;
64037;SDS011;54641;50.168;8.492;2023-05-29T08:14:03;6.10;;;3.90;;
64037;SDS011;54641;50.168;8.492;2023-05-29T08:16:34;8.40;;;4.10;;
64037;SDS011;54641;50.168;8.492;2023-05-29T08:19:05;6.80;;;4.20;;
64037;SDS011;54641;50.168;8.492;2023-05-29T08:21:36;6.70;;;4.20;;
64037;SDS011;54641;50.168;8.492;2023-05-29T08:24:07;8.10;;;3.90;;
64037;SDS011;54641;50.168;8.492;2023-05-29T08:26:37;6.40;;;3.90;;
64037;SDS011;54641;50.168;8.492;2023-05-29T08:29:08;6.80;;;4.20;;
64037;SDS011;54641;50.168;8.492;2023-05-29T08:31:39;7.70;;;3.90;;
64037;SDS011;54641;50.168;8.492;2023-05-29T08:34:10;9.50;;;4.60;;
64037;SDS011;54641;50.168;8.492;2023-05-29T08:36:41;7.90;;;4.00;;
64037;SDS011;54641;50.168;8.492;2023-05-29T08:39:12;6.00;;;4.30;;
64037;SDS011;54641;50.168;8.492;2023-05-29T08:41:44;6.80;;;4.20;;
64037;SDS011;54641;50.168;8.492;2023-05-29T08:44:19;8.80;;;4.30;;
64037;SDS011;54641;50.168;8.492;2023-05-29T08:46:52;7.00;;;4.20;;
64037;SDS011;54641;50.168;8.492;2023-05-29T08:49:25;5.90;;;4.30;;
64037;SDS011;54641;50.168;8.492;2023-05-29T08:52:02;6.90;;;4.00;;
64037;SDS011;54641;50.168;8.492;2023-05-29T08:54:34;8.90;;;4.40;;
64037;SDS011;54641;50.168;8.492;2023-05-29T08:57:05;6.10;;;4.20;;
64037;SDS011;54641;50.168;8.492;2023-05-29T08:59:35;7.00;;;4.10;;
64037;SDS011;54641;50.168;8.492;2023-05-29T09:02:09;7.50;;;4.10;;
64037;SDS011;54641;50.168;8.492;2023-05-29T09:04:42;7.20;;;4.10;;
64037;SDS011;54641;50.168;8.492;2023-05-29T09:07:13;7.40;;;4.00;;
64037;SDS011;54641;50.168;8.492;2023-05-29T09:09:44;6.60;;;4.20;;
64037;SDS011;54641;50.168;8.492;2023-05-29T09:12:14;9.60;;;4.30;;
64037;SDS011;54641;50.168;8.492;2023-05-29T09:14:45;8.10;;;4.50;;
64037;SDS011;54641;50.168;8.492;2023-05-29T09:17:16;6.40;;;4.40;;
64037;SDS011;54641;50.168;8.492;2023-05-29T09:19:47;8.00;;;4.40;;
64037;SDS011;54641;50.168;8.492;2023-05-29T09:22:18;6.10;;;4.10;;
64037;SDS011;54641;50.168;8.492;2023-05-29T09:30:43;6.80;;;4.60;;
64037;SDS011;54641;50.168;8.492;2023-05-29T09:33:15;8.70;;;4.80;;
64037;SDS011;54641;50.168;8.492;2023-05-29T09:35:46;6.10;;;4.30;;
64037;SDS011;54641;50.168;8.492;2023-05-29T09:38:17;5.10;;;3.90;;
64037;SDS011;54641;50.168;8.492;2023-05-29T09:41:08;6.60;;;4.70;;
64037;SDS011;54641;50.168;8.492;2023-05-29T09:43:39;7.40;;;4.40;;
64037;SDS011;54641;50.168;8.492;2023-05-29T09:46:12;6.70;;;4.20;;
64037;SDS011;54641;50.168;8.492;2023-05-29T09:48:47;8.00;;;4.00;;
64037;SDS011;54641;50.168;8.492;2023-05-29T09:51:21;6.70;;;4.20;;
64037;SDS011;54641;50.168;8.492;2023-05-29T09:53:54;7.30;;;4.20;;
64037;SDS011;54641;50.168;8.492;2023-05-29T09:56:28;6.80;;;4.40;;
64037;SDS011;54641;50.168;8.492;2023-05-29T09:59:00;6.80;;;4.10;;
64037;SDS011;54641;50.168;8.492;2023-05-29T10:01:30;6.40;;;4.30;;
64037;SDS011;54641;50.168;8.492;2023-05-29T10:04:02;8.30;;;4.10;;
64037;SDS011;54641;50.168;8.492;2023-05-29T10:06:32;9.40;;;4.40;;
64037;SDS011;54641;50.168;8.492;2023-05-29T10:09:03;5.50;;;4.10;;
64037;SDS011;54641;50.168;8.492;2023-05-29T10:11:37;6.50;;;3.60;;
64037;SDS011;54641;50.168;8.492;2023-05-29T10:14:09;6.70;;;4.60;;
64037;SDS011;54641;50.168;8.492;2023-05-29T10:16:43;6.00;;;3.80;;
64037;SDS011;54641;50.168;8.492;2023-05-29T10:19:18;6.60;;;4.60;;
64037;SDS011;54641;50.168;8.492;2023-05-29T10:21:50;6.80;;;4.00;;
64037;SDS011;54641;50.168;8.492;2023-05-29T10:24:23;6.50;;;4.70;;
64037;SDS011;54641;50.168;8.492;2023-05-29T10:26:54;8.10;;;4.40;;
64037;SDS011;54641;50.168;8.492;2023-05-29T10:29:26;7.80;;;4.10;;
64037;SDS011;54641;50.168;8.492;2023-05-29T10:32:04;7.70;;;4.30;;
64037;SDS011;54641;50.168;8.492;2023-05-29T10:34:43;5.80;;;4.20;;
64037;SDS011;54641;50.168;8.492;2023-05-29T10:37:18;8.40;;;4.10;;
64037;SDS011;54641;50.168;8.492;2023-05-29T10:39:49;6.90;;;4.30;;
64037;SDS011;54641;50.168;8.492;2023-05-29T10:51:23;6.70;;;4.20;;
64037;SDS011;54641;50.168;8.492;2023-05-29T10:53:54;6.10;;;4.30;;
64037;SDS011;54641;50.168;8.492;2023-05-29T10:56:29;7.80;;;4.70;;
64037;SDS011;54641;50.168;8.492;2023-05-29T10:58:59;8.60;;;4.40;;
64037;SDS011;54641;50.168;8.492;2023-05-29T11:01:30;6.70;;;4.40;;
64037;SDS011;54641;50.168;8.492;2023-05-29T11:07:00;6.80;;;4.60;;
64037;SDS011;54641;50.168;8.492;2023-05-29T11:09:33;7.00;;;4.30;;
64037;SDS011;54641;50.168;8.492;2023-05-29T11:14:47;6.40;;;4.10;;
64037;SDS011;54641;50.168;8.492;2023-05-29T11:17:32;6.80;;;4.30;;
64037;SDS011;54641;50.168;8.492;2023-05-29T11:20:16;7.70;;;4.70;;
64037;SDS011;54641;50.168;8.492;2023-05-29T11:23:01;9.00;;;4.60;;
64037;SDS011;54641;50.168;8.492;2023-05-29T11:25:35;6.20;;;4.30;;
64037;SDS011;54641;50.168;8.492;2023-05-29T11:28:08;6.70;;;4.50;;
64037;SDS011;54641;50.168;8.492;2023-05-29T11:30:42;6.90;;;4.40;;
64037;SDS011;54641;50.168;8.492;2023-05-29T11:33:23;5.70;;;4.60;;
64037;SDS011;54641;50.168;8.492;2023-05-29T11:35:55;9.00;;;4.30;;
64037;SDS011;54641;50.168;8.492;2023-05-29T11:38:27;6.40;;;4.20;;
64037;SDS011;54641;50.168;8.492;2023-05-29T11:40:57;7.90;;;4.60;;
64037;SDS011;54641;50.168;8.492;2023-05-29T11:43:31;5.80;;;4.20;;
64037;SDS011;54641;50.168;8.492;2023-05-29T11:46:01;8.90;;;5.10;;
64037;SDS011;54641;50.168;8.492;2023-05-29T11:48:32;7.80;;;5.00;;
64037;SDS011;54641;50.168;8.492;2023-05-29T11:51:04;8.20;;;4.60;;
64037;SDS011;54641;50.168;8.492;2023-05-29T11:53:34;9.00;;;4.70;;
64037;SDS011;54641;50.168;8.492;2023-05-29T11:56:08;9.10;;;7.40;;
64037;SDS011;54641;50.168;8.492;2023-05-29T11:58:39;6.60;;;4.90;;
64037;SDS011;54641;50.168;8.492;2023-05-29T12:01:09;8.50;;;4.90;;
64037;SDS011;54641;50.168;8.492;2023-05-29T12:03:40;6.70;;;4.50;;
64037;SDS011;54641;50.168;8.492;2023-05-29T12:06:10;8.50;;;5.10;;
64037;SDS011;54641;50.168;8.492;2023-05-29T12:08:41;6.10;;;4.30;;
64037;SDS011;54641;50.168;8.492;2023-05-29T12:11:11;7.60;;;4.40;;
64037;SDS011;54641;50.168;8.492;2023-05-29T12:13:42;7.30;;;4.40;;
64037;SDS011;54641;50.168;8.492;2023-05-29T12:16:12;6.60;;;4.50;;
64037;SDS011;54641;50.168;8.492;2023-05-29T12:18:42;7.70;;;4.70;;
64037;SDS011;54641;50.168;8.492;2023-05-29T12:21:13;6.50;;;4.20;;
64037;SDS011;54641;50.168;8.492;2023-05-29T12:23:44;8.10;;;5.00;;
64037;SDS011;54641;50.168;8.492;2023-05-29T12:26:14;7.20;;;4.90;;
64037;SDS011;54641;50.168;8.492;2023-05-29T12:28:44;6.30;;;4.20;;
64037;SDS011;54641;50.168;8.492;2023-05-29T12:31:15;6.30;;;4.20;;
64037;SDS011;54641;50.168;8.492;2023-05-29T12:33:59;6.10;;;4.20;;
64037;SDS011;54641;50.168;8.492;2023-05-29T12:36:30;6.90;;;4.50;;
64037;SDS011;54641;50.168;8.492;2023-05-29T12:41:36;6.80;;;4.80;;
64037;SDS011;54641;50.168;8.492;2023-05-29T12:44:07;7.20;;;4.70;;
64037;SDS011;54641;50.168;8.492;2023-05-29T12:46:38;6.90;;;4.70;;
64037;SDS011;54641;50.168;8.492;2023-05-29T12:49:14;6.30;;;4.60;;
64037;SDS011;54641;50.168;8.492;2023-05-29T12:51:48;5.70;;;4.20;;
64037;SDS011;54641;50.168;8.492;2023-05-29T12:54:20;5.90;;;4.50;;
64037;SDS011;54641;50.168;8.492;2023-05-29T12:56:50;7.30;;;4.70;;
64037;SDS011;54641;50.168;8.492;2023-05-29T12:59:21;6.60;;;4.80;;
64037;SDS011;54641;50.168;8.492;2023-05-29T13:01:51;6.80;;;4.60;;
64037;SDS011;54641;50.168;8.492;2023-05-29T13:04:21;8.00;;;4.40;;
64037;SDS011;54641;50.168;8.492;2023-05-29T13:06:51;7.30;;;4.20;;
64037;SDS011;54641;50.168;8.492;2023-05-29T13:09:22;7.30;;;4.30;;
64037;SDS011;54641;50.168;8.492;2023-05-29T13:11:52;5.50;;;4.50;;
64037;SDS011;54641;50.168;8.492;2023-05-29T13:14:22;7.60;;;4.40;;
64037;SDS011;54641;50.168;8.492;2023-05-29T13:16:52;9.60;;;4.30;;
64037;SDS011;54641;50.168;8.492;2023-05-29T13:19:23;7.50;;;5.00;;
64037;SDS011;54641;50.168;8.492;2023-05-29T13:21:53;7.10;;;4.60;;
64037;SDS011;54641;50.168;8.492;2023-05-29T13:24:23;8.40;;;5.00;;
64037;SDS011;54641;50.168;8.492;2023-05-29T13:26:53;6.70;;;4.80;;
64037;SDS011;54641;50.168;8.492;2023-05-29T13:29:24;6.10;;;4.90;;
64037;SDS011;54641;50.168;8.492;2023-05-29T13:31:54;5.90;;;4.50;;
64037;SDS011;54641;50.168;8.492;2023-05-29T13:34:25;6.50;;;4.50;;
64037;SDS011;54641;50.168;8.492;2023-05-29T13:39:25;7.90;;;4.50;;
64037;SDS011;54641;50.168;8.492;2023-05-29T13:41:56;7.00;;;4.40;;
64037;SDS011;54641;50.168;8.492;2023-05-29T13:44:26;7.90;;;4.20;;
64037;SDS011;54641;50.168;8.492;2023-05-29T13:46:57;8.30;;;4.80;;
64037;SDS011;54641;50.168;8.492;2023-05-29T13:49:28;8.00;;;4.60;;
64037;SDS011;54641;50.168;8.492;2023-05-29T13:51:58;9.90;;;4.60;;
64037;SDS011;54641;50.168;8.492;2023-05-29T13:54:29;12.00;;;4.80;;
64037;SDS011;54641;50.168;8.492;2023-05-29T13:57:03;8.30;;;4.60;;
64037;SDS011;54641;50.168;8.492;2023-05-29T13:59:35;7.10;;;4.70;;
64037;SDS011;54641;50.168;8.492;2023-05-29T14:02:05;7.10;;;4.90;;
64037;SDS011;54641;50.168;8.492;2023-05-29T14:04:36;7.40;;;4.10;;
64037;SDS011;54641;50.168;8.492;2023-05-29T14:07:10;6.60;;;4.40;;
64037;SDS011;54641;50.168;8.492;2023-05-29T14:09:40;5.50;;;4.80;;
64037;SDS011;54641;50.168;8.492;2023-05-29T14:12:10;5.90;;;4.70;;
64037;SDS011;54641;50.168;8.492;2023-05-29T14:14:42;6.90;;;4.60;;
64037;SDS011;54641;50.168;8.492;2023-05-29T14:17:13;7.00;;;4.80;;
64037;SDS011;54641;50.168;8.492;2023-05-29T14:19:44;7.60;;;4.90;;
64037;SDS011;54641;50.168;8.492;2023-05-29T14:22:15;6.20;;;5.00;;
64037;SDS011;54641;50.168;8.492;2023-05-29T14:24:45;6.90;;;4.70;;
64037;SDS011;54641;50.168;8.492;2023-05-29T14:27:16;12.50;;;6.30;;
64037;SDS011;54641;50.168;8.492;2023-05-29T14:29:50;9.10;;;5.30;;
64037;SDS011;54641;50.168;8.492;2023-05-29T14:32:20;7.10;;;4.90;;
64037;SDS011;54641;50.168;8.492;2023-05-29T14:34:50;5.90;;;4.60;;
64037;SDS011;54641;50.168;8.492;2023-05-29T14:37:20;7.60;;;4.40;;
64037;SDS011;54641;50.168;8.492;2023-05-29T14:39:51;7.40;;;4.70;;
64037;SDS011;54641;50.168;8.492;2023-05-29T14:42:21;8.90;;;4.80;;
64037;SDS011;54641;50.168;8.492;2023-05-29T14:44:51;6.60;;;4.60;;
64037;SDS011;54641;50.168;8.492;2023-05-29T14:47:22;6.80;;;4.90;;
64037;SDS011;54641;50.168;8.492;2023-05-29T14:49:52;5.80;;;4.80;;
64037;SDS011;54641;50.168;8.492;2023-05-29T14:52:22;7.00;;;5.10;;
64037;SDS011;54641;50.168;8.492;2023-05-29T14:54:52;8.00;;;4.70;;
64037;SDS011;54641;50.168;8.492;2023-05-29T14:57:23;9.10;;;5.10;;
64037;SDS011;54641;50.168;8.492;2023-05-29T14:59:53;9.20;;;5.10;;
64037;SDS011;54641;50.168;8.492;2023-05-29T15:02:24;6.50;;;4.70;;
64037;SDS011;54641;50.168;8.492;2023-05-29T15:04:55;8.20;;;5.00;;
64037;SDS011;54641;50.168;8.492;2023-05-29T15:07:25;6.40;;;4.90;;
64037;SDS011;54641;50.168;8.492;2023-05-29T15:09:58;7.20;;;5.20;;
64037;SDS011;54641;50.168;8.492;2023-05-29T15:12:30;6.90;;;5.00;;
64037;SDS011;54641;50.168;8.492;2023-05-29T15:15:01;8.40;;;5.10;;
64037;SDS011;54641;50.168;8.492;2023-05-29T15:17:32;6.10;;;5.00;;
64037;SDS011;54641;50.168;8.492;2023-05-29T15:22:33;9.00;;;4.60;;
64037;SDS011;54641;50.168;8.492;2023-05-29T15:25:05;7.00;;;5.00;;
64037;SDS011;54641;50.168;8.492;2023-05-29T15:27:35;8.40;;;5.10;;
64037;SDS011;54641;50.168;8.492;2023-05-29T15:30:09;9.60;;;5.10;;
64037;SDS011;54641;50.168;8.492;2023-05-29T15:32:41;7.10;;;4.80;;
64037;SDS011;54641;50.168;8.492;2023-05-29T15:35:12;7.20;;;4.90;;
64037;SDS011;54641;50.168;8.492;2023-05-29T15:37:43;8.80;;;5.20;;
64037;SDS011;54641;50.168;8.492;2023-05-29T15:40:14;7.90;;;5.00;;
64037;SDS011;54641;50.168;8.492;2023-05-29T15:42:44;7.10;;;4.50;;
64037;SDS011;54641;50.168;8.492;2023-05-29T15:45:15;7.50;;;5.10;;
64037;SDS011;54641;50.168;8.492;2023-05-29T15:47:48;6.50;;;4.50;;
64037;SDS011;54641;50.168;8.492;2023-05-29T15:50:19;6.90;;;4.90;;
64037;SDS011;54641;50.168;8.492;2023-05-29T15:52:50;8.20;;;5.00;;